sensor_id;sensor_type;location;lat;lon;timestamp;temperature;humidity
4107;DHT22;21906;50.812;7.132;2024-03-17T00:01:39;9.40;74.60
4107;DHT22;21906;50.812;7.132;2024-03-17T00:04:08;9.30;74.80
4107;DHT22;21906;50.812;7.132;2024-03-17T00:06:34;9.30;74.80
4107;DHT22;21906;50.812;7.132;2024-03-17T00:08:59;9.30;74.70
4107;DHT22;21906;50.812;7.132;2024-03-17T00:11:32;9.30;74.70
4107;DHT22;21906;50.812;7.132;2024-03-17T00:13:58;9.20;74.90
4107;DHT22;21906;50.812;7.132;2024-03-17T00:16:23;9.20;75.00
4107;DHT22;21906;50.812;7.132;2024-03-17T00:18:49;9.20;75.10
4107;DHT22;21906;50.812;7.132;2024-03-17T00:21:15;9.20;75.10
4107;DHT22;21906;50.812;7.132;2024-03-17T00:23:40;9.20;75.00
4107;DHT22;21906;50.812;7.132;2024-03-17T00:26:07;9.10;75.00
4107;DHT22;21906;50.812;7.132;2024-03-17T00:28:33;9.10;75.20
4107;DHT22;21906;50.812;7.132;2024-03-17T00:30:59;9.10;75.10
4107;DHT22;21906;50.812;7.132;2024-03-17T00:33:24;9.20;75.00
4107;DHT22;21906;50.812;7.132;2024-03-17T00:35:51;9.10;75.00
4107;DHT22;21906;50.812;7.132;2024-03-17T00:38:16;9.10;74.90
4107;DHT22;21906;50.812;7.132;2024-03-17T00:40:42;9.10;74.90
4107;DHT22;21906;50.812;7.132;2024-03-17T00:43:10;9.10;74.80
4107;DHT22;21906;50.812;7.132;2024-03-17T00:45:37;9.10;74.80
4107;DHT22;21906;50.812;7.132;2024-03-17T00:48:03;9.00;74.80
4107;DHT22;21906;50.812;7.132;2024-03-17T00:50:29;9.00;74.70
4107;DHT22;21906;50.812;7.132;2024-03-17T00:52:54;9.00;74.80
4107;DHT22;21906;50.812;7.132;2024-03-17T00:55:20;9.00;74.70
4107;DHT22;21906;50.812;7.132;2024-03-17T00:57:47;9.00;74.70
4107;DHT22;21906;50.812;7.132;2024-03-17T01:00:13;8.90;74.70
4107;DHT22;21906;50.812;7.132;2024-03-17T01:02:43;8.90;74.80
4107;DHT22;21906;50.812;7.132;2024-03-17T01:05:12;8.90;74.80
4107;DHT22;21906;50.812;7.132;2024-03-17T01:07:38;8.90;74.80
4107;DHT22;21906;50.812;7.132;2024-03-17T01:10:04;8.90;74.80
4107;DHT22;21906;50.812;7.132;2024-03-17T01:12:33;8.90;74.80
4107;DHT22;21906;50.812;7.132;2024-03-17T01:14:59;8.80;74.90
4107;DHT22;21906;50.812;7.132;2024-03-17T01:17:25;8.80;74.90
4107;DHT22;21906;50.812;7.132;2024-03-17T01:19:51;8.80;74.70
4107;DHT22;21906;50.812;7.132;2024-03-17T01:22:17;8.70;74.70
4107;DHT22;21906;50.812;7.132;2024-03-17T01:24:42;8.70;75.00
4107;DHT22;21906;50.812;7.132;2024-03-17T01:27:12;8.60;75.00
4107;DHT22;21906;50.812;7.132;2024-03-17T01:29:43;8.60;75.10
4107;DHT22;21906;50.812;7.132;2024-03-17T01:32:10;8.60;75.10
4107;DHT22;21906;50.812;7.132;2024-03-17T01:34:40;8.50;75.00
4107;DHT22;21906;50.812;7.132;2024-03-17T01:37:06;8.50;75.20
4107;DHT22;21906;50.812;7.132;2024-03-17T01:39:32;8.40;75.20
4107;DHT22;21906;50.812;7.132;2024-03-17T01:41:59;8.40;75.20
4107;DHT22;21906;50.812;7.132;2024-03-17T01:44:27;8.40;75.30
4107;DHT22;21906;50.812;7.132;2024-03-17T01:46:53;8.40;75.20
4107;DHT22;21906;50.812;7.132;2024-03-17T01:49:20;8.40;75.20
4107;DHT22;21906;50.812;7.132;2024-03-17T01:51:47;8.30;75.30
4107;DHT22;21906;50.812;7.132;2024-03-17T01:54:14;8.30;75.40
4107;DHT22;21906;50.812;7.132;2024-03-17T01:56:41;8.40;75.50
4107;DHT22;21906;50.812;7.132;2024-03-17T01:59:08;8.30;75.50
4107;DHT22;21906;50.812;7.132;2024-03-17T02:01:35;8.30;75.40
4107;DHT22;21906;50.812;7.132;2024-03-17T02:04:01;8.30;75.40
4107;DHT22;21906;50.812;7.132;2024-03-17T02:06:27;8.40;75.40
4107;DHT22;21906;50.812;7.132;2024-03-17T02:08:54;8.30;75.30
4107;DHT22;21906;50.812;7.132;2024-03-17T02:11:30;8.30;75.40
4107;DHT22;21906;50.812;7.132;2024-03-17T02:13:57;8.30;75.20
4107;DHT22;21906;50.812;7.132;2024-03-17T02:16:23;8.20;75.30
4107;DHT22;21906;50.812;7.132;2024-03-17T02:18:53;8.20;75.30
4107;DHT22;21906;50.812;7.132;2024-03-17T02:21:20;8.20;75.30
4107;DHT22;21906;50.812;7.132;2024-03-17T02:23:48;8.10;75.40
4107;DHT22;21906;50.812;7.132;2024-03-17T02:26:14;8.10;75.40
4107;DHT22;21906;50.812;7.132;2024-03-17T02:28:42;8.10;75.50
4107;DHT22;21906;50.812;7.132;2024-03-17T02:31:09;8.00;75.30
4107;DHT22;21906;50.812;7.132;2024-03-17T02:33:36;8.00;75.40
4107;DHT22;21906;50.812;7.132;2024-03-17T02:36:02;8.00;75.30
4107;DHT22;21906;50.812;7.132;2024-03-17T02:38:30;8.00;75.30
4107;DHT22;21906;50.812;7.132;2024-03-17T02:41:15;7.90;75.60
4107;DHT22;21906;50.812;7.132;2024-03-17T02:43:41;7.90;75.60
4107;DHT22;21906;50.812;7.132;2024-03-17T02:46:14;7.90;75.60
4107;DHT22;21906;50.812;7.132;2024-03-17T02:48:40;7.90;75.60
4107;DHT22;21906;50.812;7.132;2024-03-17T02:51:17;7.90;75.50
4107;DHT22;21906;50.812;7.132;2024-03-17T02:53:47;7.90;75.50
4107;DHT22;21906;50.812;7.132;2024-03-17T02:56:14;7.90;75.50
4107;DHT22;21906;50.812;7.132;2024-03-17T02:58:44;7.90;75.50
4107;DHT22;21906;50.812;7.132;2024-03-17T03:01:18;7.90;75.40
4107;DHT22;21906;50.812;7.132;2024-03-17T03:03:44;7.80;75.50
4107;DHT22;21906;50.812;7.132;2024-03-17T03:06:10;7.80;75.60
4107;DHT22;21906;50.812;7.132;2024-03-17T03:08:41;7.80;75.50
4107;DHT22;21906;50.812;7.132;2024-03-17T03:11:08;7.70;75.40
4107;DHT22;21906;50.812;7.132;2024-03-17T03:13:38;7.60;75.50
4107;DHT22;21906;50.812;7.132;2024-03-17T03:16:10;7.50;76.00
4107;DHT22;21906;50.812;7.132;2024-03-17T03:18:51;7.50;76.10
4107;DHT22;21906;50.812;7.132;2024-03-17T03:21:17;7.60;76.10
4107;DHT22;21906;50.812;7.132;2024-03-17T03:23:43;7.60;75.90
4107;DHT22;21906;50.812;7.132;2024-03-17T03:26:10;7.60;75.60
4107;DHT22;21906;50.812;7.132;2024-03-17T03:28:36;7.60;75.70
4107;DHT22;21906;50.812;7.132;2024-03-17T03:31:02;7.60;75.70
4107;DHT22;21906;50.812;7.132;2024-03-17T03:33:28;7.70;75.60
4107;DHT22;21906;50.812;7.132;2024-03-17T03:35:54;7.70;75.50
4107;DHT22;21906;50.812;7.132;2024-03-17T03:38:21;7.60;75.30
4107;DHT22;21906;50.812;7.132;2024-03-17T03:40:48;7.60;75.20
4107;DHT22;21906;50.812;7.132;2024-03-17T03:43:16;7.60;75.30
4107;DHT22;21906;50.812;7.132;2024-03-17T03:45:43;7.50;75.30
4107;DHT22;21906;50.812;7.132;2024-03-17T03:48:09;7.50;75.30
4107;DHT22;21906;50.812;7.132;2024-03-17T03:50:35;7.50;75.20
4107;DHT22;21906;50.812;7.132;2024-03-17T03:53:01;7.40;75.10
4107;DHT22;21906;50.812;7.132;2024-03-17T03:55:27;7.40;75.00
4107;DHT22;21906;50.812;7.132;2024-03-17T03:57:52;7.40;74.90
4107;DHT22;21906;50.812;7.132;2024-03-17T04:00:19;7.40;75.00
4107;DHT22;21906;50.812;7.132;2024-03-17T04:02:53;7.30;75.00
4107;DHT22;21906;50.812;7.132;2024-03-17T04:05:19;7.30;74.90
4107;DHT22;21906;50.812;7.132;2024-03-17T04:07:46;7.30;74.90
4107;DHT22;21906;50.812;7.132;2024-03-17T04:10:13;7.30;75.00
4107;DHT22;21906;50.812;7.132;2024-03-17T04:12:39;7.30;74.90
4107;DHT22;21906;50.812;7.132;2024-03-17T04:15:05;7.20;75.00
4107;DHT22;21906;50.812;7.132;2024-03-17T04:17:36;7.20;75.10
4107;DHT22;21906;50.812;7.132;2024-03-17T04:20:03;7.10;75.00
4107;DHT22;21906;50.812;7.132;2024-03-17T04:22:30;7.10;75.10
4107;DHT22;21906;50.812;7.132;2024-03-17T04:24:59;7.10;75.00
4107;DHT22;21906;50.812;7.132;2024-03-17T04:27:26;7.20;75.10
4107;DHT22;21906;50.812;7.132;2024-03-17T04:29:53;7.10;75.20
4107;DHT22;21906;50.812;7.132;2024-03-17T04:32:20;7.10;75.10
4107;DHT22;21906;50.812;7.132;2024-03-17T04:34:46;7.10;75.00
4107;DHT22;21906;50.812;7.132;2024-03-17T04:37:13;7.10;75.00
4107;DHT22;21906;50.812;7.132;2024-03-17T04:39:43;7.20;75.00
4107;DHT22;21906;50.812;7.132;2024-03-17T04:42:11;7.20;74.80
4107;DHT22;21906;50.812;7.132;2024-03-17T04:44:36;7.20;74.80
4107;DHT22;21906;50.812;7.132;2024-03-17T04:47:03;7.10;74.90
4107;DHT22;21906;50.812;7.132;2024-03-17T04:49:39;7.20;74.90
4107;DHT22;21906;50.812;7.132;2024-03-17T04:52:05;7.20;74.90
4107;DHT22;21906;50.812;7.132;2024-03-17T04:54:32;7.20;74.80
4107;DHT22;21906;50.812;7.132;2024-03-17T04:56:58;7.20;74.90
4107;DHT22;21906;50.812;7.132;2024-03-17T04:59:24;7.30;74.90
4107;DHT22;21906;50.812;7.132;2024-03-17T05:01:50;7.30;74.80
4107;DHT22;21906;50.812;7.132;2024-03-17T05:04:16;7.20;74.80
4107;DHT22;21906;50.812;7.132;2024-03-17T05:06:42;7.20;74.90
4107;DHT22;21906;50.812;7.132;2024-03-17T05:09:14;7.10;75.00
4107;DHT22;21906;50.812;7.132;2024-03-17T05:11:40;7.20;75.00
4107;DHT22;21906;50.812;7.132;2024-03-17T05:14:07;7.20;75.10
4107;DHT22;21906;50.812;7.132;2024-03-17T05:16:33;7.20;75.20
4107;DHT22;21906;50.812;7.132;2024-03-17T05:18:58;7.20;75.20
4107;DHT22;21906;50.812;7.132;2024-03-17T05:21:24;7.20;75.30
4107;DHT22;21906;50.812;7.132;2024-03-17T05:23:51;7.10;75.40
4107;DHT22;21906;50.812;7.132;2024-03-17T05:26:17;7.20;75.40
4107;DHT22;21906;50.812;7.132;2024-03-17T05:28:43;7.20;75.40
4107;DHT22;21906;50.812;7.132;2024-03-17T05:31:09;7.20;75.20
4107;DHT22;21906;50.812;7.132;2024-03-17T05:33:35;7.20;75.30
4107;DHT22;21906;50.812;7.132;2024-03-17T05:36:03;7.20;75.30
4107;DHT22;21906;50.812;7.132;2024-03-17T05:38:30;7.30;75.30
4107;DHT22;21906;50.812;7.132;2024-03-17T05:40:57;7.20;75.40
4107;DHT22;21906;50.812;7.132;2024-03-17T05:43:26;7.00;76.10
4107;DHT22;21906;50.812;7.132;2024-03-17T05:45:53;7.00;76.10
4107;DHT22;21906;50.812;7.132;2024-03-17T05:48:19;7.00;76.10
4107;DHT22;21906;50.812;7.132;2024-03-17T05:50:45;7.00;75.90
4107;DHT22;21906;50.812;7.132;2024-03-17T05:53:11;7.00;75.70
4107;DHT22;21906;50.812;7.132;2024-03-17T05:55:37;7.10;75.70
4107;DHT22;21906;50.812;7.132;2024-03-17T05:58:03;7.00;75.70
4107;DHT22;21906;50.812;7.132;2024-03-17T06:00:29;7.10;75.60
4107;DHT22;21906;50.812;7.132;2024-03-17T06:02:58;7.10;75.50
4107;DHT22;21906;50.812;7.132;2024-03-17T06:05:25;7.10;75.40
4107;DHT22;21906;50.812;7.132;2024-03-17T06:07:51;7.20;75.40
4107;DHT22;21906;50.812;7.132;2024-03-17T06:10:20;7.20;75.20
4107;DHT22;21906;50.812;7.132;2024-03-17T06:12:49;7.20;75.20
4107;DHT22;21906;50.812;7.132;2024-03-17T06:15:16;7.20;75.20
4107;DHT22;21906;50.812;7.132;2024-03-17T06:17:42;7.10;75.60
4107;DHT22;21906;50.812;7.132;2024-03-17T06:20:08;7.10;75.70
4107;DHT22;21906;50.812;7.132;2024-03-17T06:22:39;7.10;75.60
4107;DHT22;21906;50.812;7.132;2024-03-17T06:25:06;7.10;75.70
4107;DHT22;21906;50.812;7.132;2024-03-17T06:27:32;7.10;75.70
4107;DHT22;21906;50.812;7.132;2024-03-17T06:30:00;7.20;75.50
4107;DHT22;21906;50.812;7.132;2024-03-17T06:32:29;7.20;75.50
4107;DHT22;21906;50.812;7.132;2024-03-17T06:34:56;7.20;75.50
4107;DHT22;21906;50.812;7.132;2024-03-17T06:37:22;7.20;75.80
4107;DHT22;21906;50.812;7.132;2024-03-17T06:39:48;7.30;75.50
4107;DHT22;21906;50.812;7.132;2024-03-17T06:42:14;7.30;75.40
4107;DHT22;21906;50.812;7.132;2024-03-17T06:44:41;7.40;75.30
4107;DHT22;21906;50.812;7.132;2024-03-17T06:47:07;7.50;75.30
4107;DHT22;21906;50.812;7.132;2024-03-17T06:49:33;7.40;75.30
4107;DHT22;21906;50.812;7.132;2024-03-17T06:51:58;7.50;75.40
4107;DHT22;21906;50.812;7.132;2024-03-17T06:54:24;7.70;75.30
4107;DHT22;21906;50.812;7.132;2024-03-17T06:56:50;7.70;75.50
4107;DHT22;21906;50.812;7.132;2024-03-17T06:59:17;7.80;75.40
4107;DHT22;21906;50.812;7.132;2024-03-17T07:01:43;7.80;75.20
4107;DHT22;21906;50.812;7.132;2024-03-17T07:04:12;7.80;75.40
4107;DHT22;21906;50.812;7.132;2024-03-17T07:06:38;7.90;75.40
4107;DHT22;21906;50.812;7.132;2024-03-17T07:09:04;7.80;75.10
4107;DHT22;21906;50.812;7.132;2024-03-17T07:11:31;7.80;75.40
4107;DHT22;21906;50.812;7.132;2024-03-17T07:13:57;7.70;75.50
4107;DHT22;21906;50.812;7.132;2024-03-17T07:16:23;7.70;75.50
4107;DHT22;21906;50.812;7.132;2024-03-17T07:18:51;7.70;75.50
4107;DHT22;21906;50.812;7.132;2024-03-17T07:21:18;7.90;75.20
4107;DHT22;21906;50.812;7.132;2024-03-17T07:23:45;7.90;75.10
4107;DHT22;21906;50.812;7.132;2024-03-17T07:26:11;8.00;74.80
4107;DHT22;21906;50.812;7.132;2024-03-17T07:28:36;7.90;74.80
4107;DHT22;21906;50.812;7.132;2024-03-17T07:31:08;7.90;75.10
4107;DHT22;21906;50.812;7.132;2024-03-17T07:33:38;7.90;75.40
4107;DHT22;21906;50.812;7.132;2024-03-17T07:36:04;7.90;75.50
4107;DHT22;21906;50.812;7.132;2024-03-17T07:38:30;8.00;75.40
4107;DHT22;21906;50.812;7.132;2024-03-17T07:41:02;8.10;75.20
4107;DHT22;21906;50.812;7.132;2024-03-17T07:43:28;8.20;74.90
4107;DHT22;21906;50.812;7.132;2024-03-17T07:48:28;8.40;74.30
4107;DHT22;21906;50.812;7.132;2024-03-17T07:50:59;8.70;74.30
4107;DHT22;21906;50.812;7.132;2024-03-17T07:53:26;8.70;74.70
4107;DHT22;21906;50.812;7.132;2024-03-17T07:56:03;8.90;74.10
4107;DHT22;21906;50.812;7.132;2024-03-17T07:58:30;9.00;74.00
4107;DHT22;21906;50.812;7.132;2024-03-17T08:00:59;9.20;74.00
4107;DHT22;21906;50.812;7.132;2024-03-17T08:03:26;9.30;73.70
4107;DHT22;21906;50.812;7.132;2024-03-17T08:05:52;9.40;73.40
4107;DHT22;21906;50.812;7.132;2024-03-17T08:08:18;9.40;73.00
4107;DHT22;21906;50.812;7.132;2024-03-17T08:10:44;9.50;73.10
4107;DHT22;21906;50.812;7.132;2024-03-17T08:13:11;9.70;72.70
4107;DHT22;21906;50.812;7.132;2024-03-17T08:15:38;9.80;72.20
4107;DHT22;21906;50.812;7.132;2024-03-17T08:18:04;9.90;72.00
4107;DHT22;21906;50.812;7.132;2024-03-17T08:20:36;9.80;72.40
4107;DHT22;21906;50.812;7.132;2024-03-17T08:23:03;9.70;73.10
4107;DHT22;21906;50.812;7.132;2024-03-17T08:25:28;9.80;73.60
4107;DHT22;21906;50.812;7.132;2024-03-17T08:27:54;9.90;74.60
4107;DHT22;21906;50.812;7.132;2024-03-17T08:30:21;10.20;73.70
4107;DHT22;21906;50.812;7.132;2024-03-17T08:32:47;10.10;73.10
4107;DHT22;21906;50.812;7.132;2024-03-17T08:35:12;10.20;73.50
4107;DHT22;21906;50.812;7.132;2024-03-17T08:37:38;10.40;73.50
4107;DHT22;21906;50.812;7.132;2024-03-17T08:40:04;10.40;71.60
4107;DHT22;21906;50.812;7.132;2024-03-17T08:42:32;10.60;71.80
4107;DHT22;21906;50.812;7.132;2024-03-17T08:44:58;10.70;71.20
4107;DHT22;21906;50.812;7.132;2024-03-17T08:47:23;10.80;70.90
4107;DHT22;21906;50.812;7.132;2024-03-17T08:49:52;10.90;71.00
4107;DHT22;21906;50.812;7.132;2024-03-17T08:52:18;10.90;72.30
4107;DHT22;21906;50.812;7.132;2024-03-17T08:54:48;11.00;71.50
4107;DHT22;21906;50.812;7.132;2024-03-17T08:57:14;11.20;71.50
4107;DHT22;21906;50.812;7.132;2024-03-17T08:59:39;11.40;71.70
4107;DHT22;21906;50.812;7.132;2024-03-17T09:02:12;11.40;71.10
4107;DHT22;21906;50.812;7.132;2024-03-17T09:04:39;11.50;70.80
4107;DHT22;21906;50.812;7.132;2024-03-17T09:07:05;11.60;70.60
4107;DHT22;21906;50.812;7.132;2024-03-17T09:09:31;11.70;69.60
4107;DHT22;21906;50.812;7.132;2024-03-17T09:11:57;11.90;69.70
4107;DHT22;21906;50.812;7.132;2024-03-17T09:14:23;11.90;68.60
4107;DHT22;21906;50.812;7.132;2024-03-17T09:16:49;11.90;68.80
4107;DHT22;21906;50.812;7.132;2024-03-17T09:19:15;12.00;68.90
4107;DHT22;21906;50.812;7.132;2024-03-17T09:21:43;12.00;69.10
4107;DHT22;21906;50.812;7.132;2024-03-17T09:24:12;12.20;68.40
4107;DHT22;21906;50.812;7.132;2024-03-17T09:26:37;12.20;67.20
4107;DHT22;21906;50.812;7.132;2024-03-17T09:29:06;12.20;66.20
4107;DHT22;21906;50.812;7.132;2024-03-17T09:31:32;12.30;66.60
4107;DHT22;21906;50.812;7.132;2024-03-17T09:34:02;12.40;66.60
4107;DHT22;21906;50.812;7.132;2024-03-17T09:36:29;12.60;66.70
4107;DHT22;21906;50.812;7.132;2024-03-17T09:38:56;12.70;67.00
4107;DHT22;21906;50.812;7.132;2024-03-17T09:41:26;12.80;67.20
4107;DHT22;21906;50.812;7.132;2024-03-17T09:43:59;12.90;66.90
4107;DHT22;21906;50.812;7.132;2024-03-17T09:46:26;13.00;65.20
4107;DHT22;21906;50.812;7.132;2024-03-17T09:48:54;13.00;63.80
4107;DHT22;21906;50.812;7.132;2024-03-17T09:51:26;13.00;64.20
4107;DHT22;21906;50.812;7.132;2024-03-17T09:53:53;13.00;64.80
4107;DHT22;21906;50.812;7.132;2024-03-17T09:56:22;13.00;64.50
4107;DHT22;21906;50.812;7.132;2024-03-17T09:58:50;13.00;65.40
4107;DHT22;21906;50.812;7.132;2024-03-17T10:01:16;13.00;64.40
4107;DHT22;21906;50.812;7.132;2024-03-17T10:06:11;13.30;62.30
4107;DHT22;21906;50.812;7.132;2024-03-17T10:08:48;13.50;60.70
4107;DHT22;21906;50.812;7.132;2024-03-17T10:11:16;13.70;58.80
4107;DHT22;21906;50.812;7.132;2024-03-17T10:13:43;13.70;59.40
4107;DHT22;21906;50.812;7.132;2024-03-17T10:16:24;13.70;58.80
4107;DHT22;21906;50.812;7.132;2024-03-17T10:18:51;13.70;58.20
4107;DHT22;21906;50.812;7.132;2024-03-17T10:21:36;13.70;58.30
4107;DHT22;21906;50.812;7.132;2024-03-17T10:24:09;13.70;58.60
4107;DHT22;21906;50.812;7.132;2024-03-17T10:26:44;13.80;59.00
4107;DHT22;21906;50.812;7.132;2024-03-17T10:31:58;13.90;58.90
4107;DHT22;21906;50.812;7.132;2024-03-17T10:34:26;14.00;57.90
4107;DHT22;21906;50.812;7.132;2024-03-17T10:39:32;14.10;58.50
4107;DHT22;21906;50.812;7.132;2024-03-17T10:42:04;14.20;58.20
4107;DHT22;21906;50.812;7.132;2024-03-17T10:44:31;14.20;59.60
4107;DHT22;21906;50.812;7.132;2024-03-17T10:46:59;14.10;59.50
4107;DHT22;21906;50.812;7.132;2024-03-17T10:49:33;14.10;59.70
4107;DHT22;21906;50.812;7.132;2024-03-17T10:52:02;14.20;59.70
4107;DHT22;21906;50.812;7.132;2024-03-17T10:54:30;14.50;65.40
4107;DHT22;21906;50.812;7.132;2024-03-17T10:57:31;14.70;60.50
4107;DHT22;21906;50.812;7.132;2024-03-17T11:00:00;14.70;57.20
4107;DHT22;21906;50.812;7.132;2024-03-17T11:02:29;14.70;56.10
4107;DHT22;21906;50.812;7.132;2024-03-17T11:05:07;14.60;57.00
4107;DHT22;21906;50.812;7.132;2024-03-17T11:07:37;14.60;58.00
4107;DHT22;21906;50.812;7.132;2024-03-17T11:10:09;14.80;57.10
4107;DHT22;21906;50.812;7.132;2024-03-17T11:12:40;14.80;57.20
4107;DHT22;21906;50.812;7.132;2024-03-17T11:17:49;14.90;57.70
4107;DHT22;21906;50.812;7.132;2024-03-17T11:20:22;15.00;57.20
4107;DHT22;21906;50.812;7.132;2024-03-17T11:22:50;15.00;57.00
4107;DHT22;21906;50.812;7.132;2024-03-17T11:27:59;15.00;57.00
4107;DHT22;21906;50.812;7.132;2024-03-17T11:30:42;14.90;57.00
4107;DHT22;21906;50.812;7.132;2024-03-17T11:41:38;15.20;56.50
4107;DHT22;21906;50.812;7.132;2024-03-17T11:47:04;15.40;55.80
4107;DHT22;21906;50.812;7.132;2024-03-17T11:49:40;15.40;57.10
4107;DHT22;21906;50.812;7.132;2024-03-17T11:52:16;15.50;57.10
4107;DHT22;21906;50.812;7.132;2024-03-17T11:54:44;15.50;57.30
4107;DHT22;21906;50.812;7.132;2024-03-17T11:59:48;15.40;57.90
4107;DHT22;21906;50.812;7.132;2024-03-17T12:02:30;15.30;58.70
4107;DHT22;21906;50.812;7.132;2024-03-17T12:05:01;15.40;58.20
4107;DHT22;21906;50.812;7.132;2024-03-17T12:07:27;15.40;57.30
4107;DHT22;21906;50.812;7.132;2024-03-17T12:09:56;15.40;57.20
4107;DHT22;21906;50.812;7.132;2024-03-17T12:12:24;15.30;57.40
4107;DHT22;21906;50.812;7.132;2024-03-17T12:14:56;15.40;57.50
4107;DHT22;21906;50.812;7.132;2024-03-17T12:17:24;15.50;57.40
4107;DHT22;21906;50.812;7.132;2024-03-17T12:19:51;15.70;57.00
4107;DHT22;21906;50.812;7.132;2024-03-17T12:22:25;15.70;59.00
4107;DHT22;21906;50.812;7.132;2024-03-17T12:24:54;15.80;56.20
4107;DHT22;21906;50.812;7.132;2024-03-17T12:27:26;15.70;57.00
4107;DHT22;21906;50.812;7.132;2024-03-17T12:29:53;15.80;58.60
4107;DHT22;21906;50.812;7.132;2024-03-17T12:32:21;16.00;57.10
4107;DHT22;21906;50.812;7.132;2024-03-17T12:34:50;15.90;56.90
4107;DHT22;21906;50.812;7.132;2024-03-17T12:37:22;16.00;57.70
4107;DHT22;21906;50.812;7.132;2024-03-17T12:39:48;16.00;56.70
4107;DHT22;21906;50.812;7.132;2024-03-17T12:42:16;15.90;57.40
4107;DHT22;21906;50.812;7.132;2024-03-17T12:44:59;15.70;57.00
4107;DHT22;21906;50.812;7.132;2024-03-17T12:47:29;15.70;57.60
4107;DHT22;21906;50.812;7.132;2024-03-17T12:49:59;15.70;56.90
4107;DHT22;21906;50.812;7.132;2024-03-17T12:52:29;15.70;57.30
4107;DHT22;21906;50.812;7.132;2024-03-17T12:55:05;15.60;57.60
4107;DHT22;21906;50.812;7.132;2024-03-17T12:58:23;15.60;57.00
4107;DHT22;21906;50.812;7.132;2024-03-17T13:01:12;15.80;57.90
4107;DHT22;21906;50.812;7.132;2024-03-17T13:03:38;15.80;56.90
4107;DHT22;21906;50.812;7.132;2024-03-17T13:06:06;15.90;57.70
4107;DHT22;21906;50.812;7.132;2024-03-17T13:08:35;15.90;57.00
4107;DHT22;21906;50.812;7.132;2024-03-17T13:11:01;15.90;57.30
4107;DHT22;21906;50.812;7.132;2024-03-17T13:13:30;15.60;57.60
4107;DHT22;21906;50.812;7.132;2024-03-17T13:15:55;15.60;57.50
4107;DHT22;21906;50.812;7.132;2024-03-17T13:18:21;15.60;58.20
4107;DHT22;21906;50.812;7.132;2024-03-17T13:20:48;15.60;57.70
4107;DHT22;21906;50.812;7.132;2024-03-17T13:23:19;15.60;57.60
4107;DHT22;21906;50.812;7.132;2024-03-17T13:25:47;15.40;58.50
4107;DHT22;21906;50.812;7.132;2024-03-17T13:28:13;15.30;59.50
4107;DHT22;21906;50.812;7.132;2024-03-17T13:30:40;15.30;59.30
4107;DHT22;21906;50.812;7.132;2024-03-17T13:33:08;15.30;58.50
4107;DHT22;21906;50.812;7.132;2024-03-17T13:35:35;15.30;59.40
4107;DHT22;21906;50.812;7.132;2024-03-17T13:38:05;15.40;58.70
4107;DHT22;21906;50.812;7.132;2024-03-17T13:40:33;15.60;58.00
4107;DHT22;21906;50.812;7.132;2024-03-17T13:42:59;15.60;57.10
4107;DHT22;21906;50.812;7.132;2024-03-17T13:45:28;15.70;57.00
4107;DHT22;21906;50.812;7.132;2024-03-17T13:48:00;15.70;56.90
4107;DHT22;21906;50.812;7.132;2024-03-17T13:50:29;15.60;57.00
4107;DHT22;21906;50.812;7.132;2024-03-17T13:52:56;15.60;57.20
4107;DHT22;21906;50.812;7.132;2024-03-17T13:55:24;15.50;57.60
4107;DHT22;21906;50.812;7.132;2024-03-17T13:57:55;15.50;57.70
4107;DHT22;21906;50.812;7.132;2024-03-17T14:00:22;15.40;58.10
4107;DHT22;21906;50.812;7.132;2024-03-17T14:02:50;15.40;58.90
4107;DHT22;21906;50.812;7.132;2024-03-17T14:05:21;15.40;58.70
4107;DHT22;21906;50.812;7.132;2024-03-17T14:07:47;15.40;58.30
4107;DHT22;21906;50.812;7.132;2024-03-17T14:10:18;15.30;58.80
4107;DHT22;21906;50.812;7.132;2024-03-17T14:12:44;15.00;59.10
4107;DHT22;21906;50.812;7.132;2024-03-17T14:15:12;14.90;59.30
4107;DHT22;21906;50.812;7.132;2024-03-17T14:17:39;14.90;60.70
4107;DHT22;21906;50.812;7.132;2024-03-17T14:20:06;14.90;60.50
4107;DHT22;21906;50.812;7.132;2024-03-17T14:22:36;14.90;60.50
4107;DHT22;21906;50.812;7.132;2024-03-17T14:25:07;15.00;60.90
4107;DHT22;21906;50.812;7.132;2024-03-17T14:27:36;15.20;59.50
4107;DHT22;21906;50.812;7.132;2024-03-17T14:30:02;15.30;59.60
4107;DHT22;21906;50.812;7.132;2024-03-17T14:32:30;15.40;59.20
4107;DHT22;21906;50.812;7.132;2024-03-17T14:34:56;15.50;58.90
4107;DHT22;21906;50.812;7.132;2024-03-17T14:37:22;15.70;58.30
4107;DHT22;21906;50.812;7.132;2024-03-17T14:39:49;15.80;57.60
4107;DHT22;21906;50.812;7.132;2024-03-17T14:42:15;15.80;57.30
4107;DHT22;21906;50.812;7.132;2024-03-17T14:44:41;15.90;56.80
4107;DHT22;21906;50.812;7.132;2024-03-17T14:47:07;15.90;57.20
4107;DHT22;21906;50.812;7.132;2024-03-17T14:49:33;16.00;58.10
4107;DHT22;21906;50.812;7.132;2024-03-17T14:51:59;16.10;58.00
4107;DHT22;21906;50.812;7.132;2024-03-17T14:54:26;16.20;57.60
4107;DHT22;21906;50.812;7.132;2024-03-17T14:56:52;16.30;56.80
4107;DHT22;21906;50.812;7.132;2024-03-17T14:59:22;16.50;56.00
4107;DHT22;21906;50.812;7.132;2024-03-17T15:01:48;16.60;55.60
4107;DHT22;21906;50.812;7.132;2024-03-17T15:04:14;16.70;55.20
4107;DHT22;21906;50.812;7.132;2024-03-17T15:06:43;17.00;53.90
4107;DHT22;21906;50.812;7.132;2024-03-17T15:09:09;17.40;53.50
4107;DHT22;21906;50.812;7.132;2024-03-17T15:11:35;17.60;54.80
4107;DHT22;21906;50.812;7.132;2024-03-17T15:14:01;18.20;54.60
4107;DHT22;21906;50.812;7.132;2024-03-17T15:16:30;18.90;51.00
4107;DHT22;21906;50.812;7.132;2024-03-17T15:18:56;19.30;51.10
4107;DHT22;21906;50.812;7.132;2024-03-17T15:21:23;19.90;49.90
4107;DHT22;21906;50.812;7.132;2024-03-17T15:23:48;20.50;48.00
4107;DHT22;21906;50.812;7.132;2024-03-17T15:26:14;21.00;46.40
4107;DHT22;21906;50.812;7.132;2024-03-17T15:28:43;21.50;45.80
4107;DHT22;21906;50.812;7.132;2024-03-17T15:31:11;21.70;44.40
4107;DHT22;21906;50.812;7.132;2024-03-17T15:33:38;21.50;44.10
4107;DHT22;21906;50.812;7.132;2024-03-17T15:36:07;21.40;43.30
4107;DHT22;21906;50.812;7.132;2024-03-17T15:38:37;21.30;42.90
4107;DHT22;21906;50.812;7.132;2024-03-17T15:41:07;20.50;44.30
4107;DHT22;21906;50.812;7.132;2024-03-17T15:43:36;20.20;46.30
4107;DHT22;21906;50.812;7.132;2024-03-17T15:46:20;19.90;46.80
4107;DHT22;21906;50.812;7.132;2024-03-17T15:48:48;19.50;47.40
4107;DHT22;21906;50.812;7.132;2024-03-17T15:51:15;19.10;48.40
4107;DHT22;21906;50.812;7.132;2024-03-17T15:53:45;18.80;48.80
4107;DHT22;21906;50.812;7.132;2024-03-17T15:56:11;18.20;49.80
4107;DHT22;21906;50.812;7.132;2024-03-17T15:58:37;17.90;51.30
4107;DHT22;21906;50.812;7.132;2024-03-17T16:01:06;17.50;52.00
4107;DHT22;21906;50.812;7.132;2024-03-17T16:03:37;17.50;52.30
4107;DHT22;21906;50.812;7.132;2024-03-17T16:08:43;17.40;52.80
4107;DHT22;21906;50.812;7.132;2024-03-17T16:11:15;17.30;54.40
4107;DHT22;21906;50.812;7.132;2024-03-17T16:13:44;17.10;54.10
4107;DHT22;21906;50.812;7.132;2024-03-17T16:16:15;16.90;54.00
4107;DHT22;21906;50.812;7.132;2024-03-17T16:18:41;16.90;54.30
4107;DHT22;21906;50.812;7.132;2024-03-17T16:21:26;16.80;54.70
4107;DHT22;21906;50.812;7.132;2024-03-17T16:23:53;16.80;54.90
4107;DHT22;21906;50.812;7.132;2024-03-17T16:26:20;17.20;54.80
4107;DHT22;21906;50.812;7.132;2024-03-17T16:28:47;17.70;53.30
4107;DHT22;21906;50.812;7.132;2024-03-17T16:31:14;18.20;51.30
4107;DHT22;21906;50.812;7.132;2024-03-17T16:33:41;18.10;50.50